sensor_id;sensor_type;location;lat;lon;timestamp;pressure;altitude;pressure_sealevel;temperature;humidity
36598;BME280;22607;49.550;11.940;2022-07-23T00:02:41;96888.19;;;21.43;68.81
36598;BME280;22607;49.550;11.940;2022-07-23T00:05:28;96872.63;;;21.40;68.26
36598;BME280;22607;49.550;11.940;2022-07-23T00:08:16;96859.53;;;21.56;66.77
36598;BME280;22607;49.550;11.940;2022-07-23T00:11:03;96860.50;;;21.67;66.89
36598;BME280;22607;49.550;11.940;2022-07-23T00:13:50;96861.06;;;21.51;68.91
36598;BME280;22607;49.550;11.940;2022-07-23T00:16:37;96862.44;;;21.54;69.72
36598;BME280;22607;49.550;11.940;2022-07-23T00:19:24;96855.41;;;21.48;70.33
36598;BME280;22607;49.550;11.940;2022-07-23T00:22:11;96845.59;;;21.36;70.37
36598;BME280;22607;49.550;11.940;2022-07-23T00:24:58;96837.47;;;21.14;72.08
36598;BME280;22607;49.550;11.940;2022-07-23T00:28:05;96846.31;;;21.32;69.94
36598;BME280;22607;49.550;11.940;2022-07-23T00:30:52;96886.06;;;21.45;72.04
36598;BME280;22607;49.550;11.940;2022-07-23T00:33:40;96925.56;;;21.43;78.01
36598;BME280;22607;49.550;11.940;2022-07-23T00:36:27;96912.97;;;21.56;67.86
36598;BME280;22607;49.550;11.940;2022-07-23T00:39:15;96863.06;;;21.61;78.29
36598;BME280;22607;49.550;11.940;2022-07-23T00:42:02;96837.75;;;20.71;100.00
36598;BME280;22607;49.550;11.940;2022-07-23T00:44:49;96820.53;;;20.79;100.00
36598;BME280;22607;49.550;11.940;2022-07-23T00:47:36;96824.59;;;20.53;100.00
36598;BME280;22607;49.550;11.940;2022-07-23T00:50:24;96826.97;;;20.66;100.00
36598;BME280;22607;49.550;11.940;2022-07-23T00:53:11;96825.56;;;20.76;100.00
36598;BME280;22607;49.550;11.940;2022-07-23T00:55:58;96821.53;;;20.61;100.00
36598;BME280;22607;49.550;11.940;2022-07-23T00:58:46;96823.56;;;20.42;100.00
36598;BME280;22607;49.550;11.940;2022-07-23T01:01:33;96824.13;;;20.44;100.00
36598;BME280;22607;49.550;11.940;2022-07-23T01:04:20;96822.09;;;20.34;100.00
36598;BME280;22607;49.550;11.940;2022-07-23T01:07:07;96834.72;;;20.27;100.00
36598;BME280;22607;49.550;11.940;2022-07-23T01:09:55;96835.06;;;20.30;100.00
36598;BME280;22607;49.550;11.940;2022-07-23T01:12:42;96834.06;;;20.19;100.00
36598;BME280;22607;49.550;11.940;2022-07-23T01:15:29;96829.38;;;20.39;100.00
36598;BME280;22607;49.550;11.940;2022-07-23T01:18:17;96841.25;;;20.07;100.00
36598;BME280;22607;49.550;11.940;2022-07-23T01:21:04;96842.31;;;20.06;100.00
36598;BME280;22607;49.550;11.940;2022-07-23T01:23:51;96852.97;;;20.06;100.00
36598;BME280;22607;49.550;11.940;2022-07-23T01:26:40;96845.50;;;20.20;100.00
36598;BME280;22607;49.550;11.940;2022-07-23T01:29:27;96834.03;;;19.72;100.00
36598;BME280;22607;49.550;11.940;2022-07-23T01:32:14;96847.94;;;19.74;100.00
36598;BME280;22607;49.550;11.940;2022-07-23T01:35:01;96847.47;;;19.77;100.00
36598;BME280;22607;49.550;11.940;2022-07-23T01:37:48;96848.28;;;19.77;100.00
36598;BME280;22607;49.550;11.940;2022-07-23T01:40:36;96841.47;;;19.70;100.00
36598;BME280;22607;49.550;11.940;2022-07-23T01:43:23;96832.41;;;19.59;100.00
36598;BME280;22607;49.550;11.940;2022-07-23T01:46:13;96814.44;;;19.54;100.00
36598;BME280;22607;49.550;11.940;2022-07-23T01:49:00;96812.25;;;19.63;100.00
36598;BME280;22607;49.550;11.940;2022-07-23T01:51:47;96812.50;;;19.61;100.00
36598;BME280;22607;49.550;11.940;2022-07-23T01:54:46;96809.81;;;19.61;100.00
36598;BME280;22607;49.550;11.940;2022-07-23T01:57:33;96815.88;;;19.68;100.00
36598;BME280;22607;49.550;11.940;2022-07-23T02:00:20;96818.16;;;19.77;100.00
36598;BME280;22607;49.550;11.940;2022-07-23T02:03:07;96821.66;;;19.77;100.00
36598;BME280;22607;49.550;11.940;2022-07-23T02:05:56;96818.63;;;19.62;100.00
36598;BME280;22607;49.550;11.940;2022-07-23T02:08:43;96816.66;;;19.69;100.00
36598;BME280;22607;49.550;11.940;2022-07-23T02:11:30;96820.72;;;19.60;100.00
36598;BME280;22607;49.550;11.940;2022-07-23T02:14:17;96815.50;;;19.53;100.00
36598;BME280;22607;49.550;11.940;2022-07-23T02:17:04;96807.16;;;19.37;100.00
36598;BME280;22607;49.550;11.940;2022-07-23T02:19:51;96789.91;;;19.52;100.00
36598;BME280;22607;49.550;11.940;2022-07-23T02:22:38;96797.22;;;19.68;100.00
36598;BME280;22607;49.550;11.940;2022-07-23T02:25:25;96797.44;;;19.55;100.00
36598;BME280;22607;49.550;11.940;2022-07-23T02:28:12;96804.28;;;19.51;100.00
36598;BME280;22607;49.550;11.940;2022-07-23T02:30:59;96821.75;;;19.71;100.00
36598;BME280;22607;49.550;11.940;2022-07-23T02:33:47;96816.78;;;19.74;100.00
36598;BME280;22607;49.550;11.940;2022-07-23T02:36:34;96826.38;;;19.63;100.00
36598;BME280;22607;49.550;11.940;2022-07-23T02:39:21;96835.53;;;19.55;100.00
36598;BME280;22607;49.550;11.940;2022-07-23T02:42:08;96841.34;;;19.64;100.00
36598;BME280;22607;49.550;11.940;2022-07-23T02:44:56;96829.41;;;19.67;100.00
36598;BME280;22607;49.550;11.940;2022-07-23T02:47:43;96847.47;;;19.65;100.00
36598;BME280;22607;49.550;11.940;2022-07-23T02:50:31;96845.63;;;19.65;100.00
36598;BME280;22607;49.550;11.940;2022-07-23T02:53:18;96846.56;;;19.83;100.00
36598;BME280;22607;49.550;11.940;2022-07-23T02:56:05;96850.13;;;19.77;100.00
36598;BME280;22607;49.550;11.940;2022-07-23T02:58:52;96849.34;;;19.64;100.00
36598;BME280;22607;49.550;11.940;2022-07-23T03:01:39;96846.88;;;19.51;100.00
36598;BME280;22607;49.550;11.940;2022-07-23T03:04:26;96858.22;;;19.58;100.00
36598;BME280;22607;49.550;11.940;2022-07-23T03:07:13;96855.72;;;19.75;100.00
36598;BME280;22607;49.550;11.940;2022-07-23T03:10:00;96841.13;;;20.02;100.00
36598;BME280;22607;49.550;11.940;2022-07-23T03:12:47;96846.69;;;19.76;100.00
36598;BME280;22607;49.550;11.940;2022-07-23T03:15:34;96830.19;;;19.67;100.00
36598;BME280;22607;49.550;11.940;2022-07-23T03:18:21;96843.78;;;19.66;100.00
36598;BME280;22607;49.550;11.940;2022-07-23T03:21:09;96836.13;;;19.70;100.00
36598;BME280;22607;49.550;11.940;2022-07-23T03:23:56;96837.28;;;19.50;100.00
36598;BME280;22607;49.550;11.940;2022-07-23T03:26:43;96833.13;;;19.78;100.00
36598;BME280;22607;49.550;11.940;2022-07-23T03:29:30;96844.22;;;19.51;100.00
36598;BME280;22607;49.550;11.940;2022-07-23T03:32:20;96836.69;;;19.60;100.00
36598;BME280;22607;49.550;11.940;2022-07-23T03:35:08;96849.13;;;19.23;100.00
36598;BME280;22607;49.550;11.940;2022-07-23T03:37:55;96853.06;;;19.21;100.00
36598;BME280;22607;49.550;11.940;2022-07-23T03:40:42;96855.84;;;19.26;100.00
36598;BME280;22607;49.550;11.940;2022-07-23T03:43:29;96870.69;;;19.34;100.00
36598;BME280;22607;49.550;11.940;2022-07-23T03:46:16;96860.41;;;19.37;100.00
36598;BME280;22607;49.550;11.940;2022-07-23T03:49:04;96859.38;;;19.50;100.00
36598;BME280;22607;49.550;11.940;2022-07-23T03:51:52;96860.97;;;19.39;100.00
36598;BME280;22607;49.550;11.940;2022-07-23T03:54:39;96855.41;;;19.41;100.00
36598;BME280;22607;49.550;11.940;2022-07-23T03:57:26;96850.66;;;19.31;100.00
36598;BME280;22607;49.550;11.940;2022-07-23T04:00:13;96849.88;;;19.42;100.00
36598;BME280;22607;49.550;11.940;2022-07-23T04:03:00;96861.31;;;19.31;100.00
36598;BME280;22607;49.550;11.940;2022-07-23T04:05:47;96860.75;;;19.41;100.00
36598;BME280;22607;49.550;11.940;2022-07-23T04:08:34;96854.72;;;19.34;100.00
36598;BME280;22607;49.550;11.940;2022-07-23T04:11:21;96852.63;;;19.36;100.00
36598;BME280;22607;49.550;11.940;2022-07-23T04:14:08;96848.72;;;19.50;100.00
36598;BME280;22607;49.550;11.940;2022-07-23T04:16:55;96839.56;;;19.46;100.00
36598;BME280;22607;49.550;11.940;2022-07-23T04:19:42;96839.78;;;19.45;100.00
36598;BME280;22607;49.550;11.940;2022-07-23T04:22:30;96831.78;;;19.33;100.00
36598;BME280;22607;49.550;11.940;2022-07-23T04:25:17;96828.44;;;19.37;100.00
36598;BME280;22607;49.550;11.940;2022-07-23T04:28:04;96829.97;;;19.45;100.00
36598;BME280;22607;49.550;11.940;2022-07-23T04:30:51;96823.94;;;19.38;100.00
36598;BME280;22607;49.550;11.940;2022-07-23T04:33:38;96837.72;;;19.47;100.00
36598;BME280;22607;49.550;11.940;2022-07-23T04:36:25;96834.00;;;19.48;100.00
36598;BME280;22607;49.550;11.940;2022-07-23T04:39:12;96836.34;;;19.56;100.00
36598;BME280;22607;49.550;11.940;2022-07-23T04:41:59;96839.25;;;19.66;100.00
36598;BME280;22607;49.550;11.940;2022-07-23T04:44:46;96836.13;;;19.70;100.00
36598;BME280;22607;49.550;11.940;2022-07-23T04:47:33;96840.41;;;19.71;100.00
36598;BME280;22607;49.550;11.940;2022-07-23T04:50:21;96838.31;;;19.73;100.00
36598;BME280;22607;49.550;11.940;2022-07-23T04:53:08;96840.19;;;19.84;100.00
36598;BME280;22607;49.550;11.940;2022-07-23T04:55:55;96849.00;;;19.85;100.00
36598;BME280;22607;49.550;11.940;2022-07-23T04:58:42;96842.72;;;19.91;100.00
36598;BME280;22607;49.550;11.940;2022-07-23T05:01:29;96847.13;;;19.85;100.00
36598;BME280;22607;49.550;11.940;2022-07-23T05:04:16;96852.94;;;19.94;100.00
36598;BME280;22607;49.550;11.940;2022-07-23T05:07:04;96850.66;;;19.98;100.00
36598;BME280;22607;49.550;11.940;2022-07-23T05:09:51;96844.59;;;20.02;100.00
36598;BME280;22607;49.550;11.940;2022-07-23T05:12:38;96852.59;;;20.14;100.00
36598;BME280;22607;49.550;11.940;2022-07-23T05:15:25;96859.06;;;20.18;100.00
36598;BME280;22607;49.550;11.940;2022-07-23T05:18:12;96854.28;;;20.44;100.00
36598;BME280;22607;49.550;11.940;2022-07-23T05:20:59;96857.34;;;20.65;100.00
36598;BME280;22607;49.550;11.940;2022-07-23T05:23:46;96859.53;;;21.09;100.00
36598;BME280;22607;49.550;11.940;2022-07-23T05:26:33;96847.31;;;21.60;100.00
36598;BME280;22607;49.550;11.940;2022-07-23T05:29:20;96839.69;;;21.34;100.00
36598;BME280;22607;49.550;11.940;2022-07-23T05:32:07;96840.97;;;21.66;100.00
36598;BME280;22607;49.550;11.940;2022-07-23T05:34:54;96847.19;;;22.06;100.00
36598;BME280;22607;49.550;11.940;2022-07-23T05:37:41;96847.25;;;22.51;100.00
36598;BME280;22607;49.550;11.940;2022-07-23T05:40:28;96842.16;;;22.10;100.00
36598;BME280;22607;49.550;11.940;2022-07-23T05:43:15;96849.28;;;22.21;100.00
36598;BME280;22607;49.550;11.940;2022-07-23T05:46:02;96849.75;;;22.18;100.00
36598;BME280;22607;49.550;11.940;2022-07-23T05:48:50;96849.97;;;22.34;100.00
36598;BME280;22607;49.550;11.940;2022-07-23T05:51:37;96845.19;;;22.80;100.00
36598;BME280;22607;49.550;11.940;2022-07-23T05:54:24;96840.06;;;23.62;100.00
36598;BME280;22607;49.550;11.940;2022-07-23T05:57:11;96847.53;;;24.41;100.00
36598;BME280;22607;49.550;11.940;2022-07-23T05:59:58;96852.97;;;24.56;100.00
36598;BME280;22607;49.550;11.940;2022-07-23T06:02:45;96846.47;;;24.42;100.00
36598;BME280;22607;49.550;11.940;2022-07-23T06:05:38;96841.75;;;24.80;100.00
36598;BME280;22607;49.550;11.940;2022-07-23T06:08:25;96850.31;;;24.72;100.00
36598;BME280;22607;49.550;11.940;2022-07-23T06:11:13;96856.59;;;24.93;100.00
36598;BME280;22607;49.550;11.940;2022-07-23T06:14:00;96847.81;;;25.65;100.00
36598;BME280;22607;49.550;11.940;2022-07-23T06:16:47;96848.09;;;25.74;100.00
36598;BME280;22607;49.550;11.940;2022-07-23T06:19:34;96845.34;;;26.11;92.19
36598;BME280;22607;49.550;11.940;2022-07-23T06:22:22;96855.88;;;25.76;97.17
36598;BME280;22607;49.550;11.940;2022-07-23T06:25:09;96849.09;;;26.04;77.71
36598;BME280;22607;49.550;11.940;2022-07-23T06:28:06;96847.94;;;26.42;74.23
36598;BME280;22607;49.550;11.940;2022-07-23T06:30:53;96845.84;;;26.89;72.74
36598;BME280;22607;49.550;11.940;2022-07-23T06:33:40;96852.41;;;26.67;72.40
36598;BME280;22607;49.550;11.940;2022-07-23T06:36:27;96858.78;;;26.97;67.99
36598;BME280;22607;49.550;11.940;2022-07-23T06:39:15;96858.63;;;27.18;62.85
36598;BME280;22607;49.550;11.940;2022-07-23T06:42:02;96856.88;;;27.38;56.51
36598;BME280;22607;49.550;11.940;2022-07-23T06:44:49;96866.19;;;27.56;55.77
36598;BME280;22607;49.550;11.940;2022-07-23T06:47:36;96863.13;;;27.68;56.73
36598;BME280;22607;49.550;11.940;2022-07-23T06:50:23;96851.69;;;27.82;53.46
36598;BME280;22607;49.550;11.940;2022-07-23T06:53:10;96858.47;;;28.03;52.42
36598;BME280;22607;49.550;11.940;2022-07-23T06:55:57;96866.13;;;27.96;51.49
36598;BME280;22607;49.550;11.940;2022-07-23T06:58:44;96861.09;;;28.38;52.55
36598;BME280;22607;49.550;11.940;2022-07-23T07:01:31;96857.63;;;28.08;50.69
36598;BME280;22607;49.550;11.940;2022-07-23T07:04:18;96860.44;;;28.27;49.78
36598;BME280;22607;49.550;11.940;2022-07-23T07:07:05;96859.75;;;28.85;47.98
36598;BME280;22607;49.550;11.940;2022-07-23T07:09:52;96870.13;;;28.53;49.25
36598;BME280;22607;49.550;11.940;2022-07-23T07:12:39;96874.31;;;29.27;48.54
36598;BME280;22607;49.550;11.940;2022-07-23T07:15:26;96879.25;;;29.39;47.65
36598;BME280;22607;49.550;11.940;2022-07-23T07:18:13;96885.75;;;29.91;45.54
36598;BME280;22607;49.550;11.940;2022-07-23T07:21:00;96893.19;;;29.85;45.48
36598;BME280;22607;49.550;11.940;2022-07-23T07:23:47;96890.94;;;29.73;45.02
36598;BME280;22607;49.550;11.940;2022-07-23T07:26:34;96895.91;;;29.99;44.45
36598;BME280;22607;49.550;11.940;2022-07-23T07:29:21;96877.53;;;29.82;43.70
36598;BME280;22607;49.550;11.940;2022-07-23T07:32:08;96896.28;;;30.39;44.57
36598;BME280;22607;49.550;11.940;2022-07-23T07:34:55;96892.41;;;29.98;42.51
36598;BME280;22607;49.550;11.940;2022-07-23T07:37:42;96889.72;;;30.12;42.75
36598;BME280;22607;49.550;11.940;2022-07-23T07:40:29;96901.47;;;30.22;42.80
36598;BME280;22607;49.550;11.940;2022-07-23T07:43:20;96897.28;;;30.16;42.84
36598;BME280;22607;49.550;11.940;2022-07-23T07:46:07;96894.25;;;30.31;42.79
36598;BME280;22607;49.550;11.940;2022-07-23T07:48:57;96905.13;;;29.65;44.11
36598;BME280;22607;49.550;11.940;2022-07-23T07:51:45;96913.47;;;29.11;45.63
36598;BME280;22607;49.550;11.940;2022-07-23T07:54:33;96911.25;;;28.69;46.04
36598;BME280;22607;49.550;11.940;2022-07-23T07:57:22;96915.53;;;28.21;48.01
36598;BME280;22607;49.550;11.940;2022-07-23T08:00:12;96920.28;;;27.70;49.73
36598;BME280;22607;49.550;11.940;2022-07-23T08:02:59;96911.94;;;27.72;49.53
36598;BME280;22607;49.550;11.940;2022-07-23T08:05:49;96932.00;;;27.60;49.76
36598;BME280;22607;49.550;11.940;2022-07-23T08:08:36;96943.47;;;27.71;49.28
36598;BME280;22607;49.550;11.940;2022-07-23T08:11:23;96935.84;;;27.84;50.09
36598;BME280;22607;49.550;11.940;2022-07-23T08:14:10;96937.03;;;27.72;49.62
36598;BME280;22607;49.550;11.940;2022-07-23T08:16:57;96943.69;;;27.80;49.81
36598;BME280;22607;49.550;11.940;2022-07-23T08:20:01;96946.31;;;27.90;50.73
36598;BME280;22607;49.550;11.940;2022-07-23T08:23:02;96947.63;;;27.93;49.39
36598;BME280;22607;49.550;11.940;2022-07-23T08:25:49;96952.22;;;27.52;50.46
36598;BME280;22607;49.550;11.940;2022-07-23T08:28:36;96950.88;;;27.60;51.60
36598;BME280;22607;49.550;11.940;2022-07-23T08:31:23;96949.41;;;27.73;49.97
36598;BME280;22607;49.550;11.940;2022-07-23T08:34:11;96956.97;;;27.71;50.67
36598;BME280;22607;49.550;11.940;2022-07-23T08:36:57;96968.13;;;27.94;49.67
36598;BME280;22607;49.550;11.940;2022-07-23T08:39:44;96971.09;;;27.98;50.09
36598;BME280;22607;49.550;11.940;2022-07-23T08:42:32;96974.44;;;27.84;50.67
36598;BME280;22607;49.550;11.940;2022-07-23T08:45:23;96972.47;;;28.30;48.69
36598;BME280;22607;49.550;11.940;2022-07-23T08:48:16;96965.94;;;28.61;49.22
36598;BME280;22607;49.550;11.940;2022-07-23T08:51:04;96967.88;;;28.55;47.73
36598;BME280;22607;49.550;11.940;2022-07-23T08:53:56;96966.66;;;29.15;45.87
36598;BME280;22607;49.550;11.940;2022-07-23T08:56:44;96959.38;;;29.35;45.83
36598;BME280;22607;49.550;11.940;2022-07-23T08:59:31;96968.47;;;29.64;45.28
36598;BME280;22607;49.550;11.940;2022-07-23T09:02:18;96964.00;;;30.06;43.25
36598;BME280;22607;49.550;11.940;2022-07-23T09:05:06;96959.25;;;29.98;43.78
36598;BME280;22607;49.550;11.940;2022-07-23T09:08:23;96960.69;;;30.57;41.39
36598;BME280;22607;49.550;11.940;2022-07-23T09:11:12;96970.81;;;30.04;40.61
36598;BME280;22607;49.550;11.940;2022-07-23T09:14:00;96974.00;;;29.53;41.46
36598;BME280;22607;49.550;11.940;2022-07-23T09:16:49;96981.50;;;29.18;42.43
36598;BME280;22607;49.550;11.940;2022-07-23T09:19:36;96982.84;;;28.96;42.46
36598;BME280;22607;49.550;11.940;2022-07-23T09:22:25;96987.09;;;28.78;42.39
36598;BME280;22607;49.550;11.940;2022-07-23T09:25:17;96995.81;;;28.69;42.74
36598;BME280;22607;49.550;11.940;2022-07-23T09:28:04;96990.34;;;28.50;43.91
36598;BME280;22607;49.550;11.940;2022-07-23T09:30:53;96995.22;;;29.02;42.53
36598;BME280;22607;49.550;11.940;2022-07-23T09:33:41;96995.59;;;28.90;43.57
36598;BME280;22607;49.550;11.940;2022-07-23T09:36:29;96993.75;;;28.61;44.30
36598;BME280;22607;49.550;11.940;2022-07-23T09:39:28;97005.25;;;28.08;45.11
36598;BME280;22607;49.550;11.940;2022-07-23T09:42:23;97013.91;;;27.70;46.23
36598;BME280;22607;49.550;11.940;2022-07-23T09:45:10;97013.66;;;27.66;47.13
36598;BME280;22607;49.550;11.940;2022-07-23T09:48:12;97016.19;;;27.47;45.94
36598;BME280;22607;49.550;11.940;2022-07-23T09:51:02;97012.75;;;27.31;44.42
36598;BME280;22607;49.550;11.940;2022-07-23T09:53:51;97012.50;;;27.27;43.96
36598;BME280;22607;49.550;11.940;2022-07-23T09:56:39;97005.03;;;26.93;45.17
36598;BME280;22607;49.550;11.940;2022-07-23T09:59:31;97024.16;;;27.12;44.49
36598;BME280;22607;49.550;11.940;2022-07-23T10:02:20;97029.88;;;26.90;45.03
36598;BME280;22607;49.550;11.940;2022-07-23T10:05:13;97043.66;;;26.46;47.07
36598;BME280;22607;49.550;11.940;2022-07-23T10:08:02;97047.44;;;26.40;48.60
36598;BME280;22607;49.550;11.940;2022-07-23T10:10:50;97058.47;;;26.28;48.51
36598;BME280;22607;49.550;11.940;2022-07-23T10:13:37;97065.50;;;26.34;49.51
36598;BME280;22607;49.550;11.940;2022-07-23T10:16:41;97072.16;;;26.11;51.47
36598;BME280;22607;49.550;11.940;2022-07-23T10:19:30;97076.19;;;25.98;52.38
36598;BME280;22607;49.550;11.940;2022-07-23T10:22:29;97069.13;;;25.66;54.89
36598;BME280;22607;49.550;11.940;2022-07-23T10:31:41;97069.84;;;25.51;54.46
36598;BME280;22607;49.550;11.940;2022-07-23T10:34:58;97068.25;;;25.55;57.25
36598;BME280;22607;49.550;11.940;2022-07-23T10:38:00;97069.94;;;25.66;55.39
36598;BME280;22607;49.550;11.940;2022-07-23T10:41:00;97083.75;;;25.37;57.42
36598;BME280;22607;49.550;11.940;2022-07-23T10:44:06;97070.44;;;24.99;64.39
36598;BME280;22607;49.550;11.940;2022-07-23T10:47:04;97071.59;;;24.76;68.24
36598;BME280;22607;49.550;11.940;2022-07-23T10:50:27;97057.22;;;24.93;69.41
36598;BME280;22607;49.550;11.940;2022-07-23T10:53:17;97057.31;;;25.08;69.13
36598;BME280;22607;49.550;11.940;2022-07-23T10:56:05;97054.72;;;24.81;78.60
36598;BME280;22607;49.550;11.940;2022-07-23T10:58:52;97061.25;;;24.90;72.64
36598;BME280;22607;49.550;11.940;2022-07-23T11:01:40;97044.06;;;24.53;77.85
36598;BME280;22607;49.550;11.940;2022-07-23T11:04:50;97052.81;;;24.38;78.69
36598;BME280;22607;49.550;11.940;2022-07-23T11:10:52;97055.66;;;24.97;71.37
36598;BME280;22607;49.550;11.940;2022-07-23T11:13:41;97062.94;;;24.63;75.42
36598;BME280;22607;49.550;11.940;2022-07-23T11:16:28;97066.19;;;24.71;73.35
36598;BME280;22607;49.550;11.940;2022-07-23T11:19:16;97054.31;;;24.61;73.35
36598;BME280;22607;49.550;11.940;2022-07-23T11:22:04;97061.25;;;24.57;74.76
36598;BME280;22607;49.550;11.940;2022-07-23T11:24:51;97054.94;;;24.74;70.29
36598;BME280;22607;49.550;11.940;2022-07-23T11:27:38;97061.22;;;24.85;68.82
36598;BME280;22607;49.550;11.940;2022-07-23T11:36:02;97054.56;;;24.60;73.05
36598;BME280;22607;49.550;11.940;2022-07-23T11:38:51;97051.22;;;25.34;63.08
36598;BME280;22607;49.550;11.940;2022-07-23T11:41:45;97041.66;;;24.95;66.23
36598;BME280;22607;49.550;11.940;2022-07-23T11:44:37;97045.22;;;24.68;68.08
36598;BME280;22607;49.550;11.940;2022-07-23T11:47:26;97043.72;;;24.82;66.41
36598;BME280;22607;49.550;11.940;2022-07-23T11:50:13;97044.69;;;24.65;68.10
36598;BME280;22607;49.550;11.940;2022-07-23T11:53:01;97049.56;;;25.17;61.88
36598;BME280;22607;49.550;11.940;2022-07-23T11:55:48;97038.84;;;25.22;61.26
36598;BME280;22607;49.550;11.940;2022-07-23T11:58:35;97030.19;;;25.10;61.33
36598;BME280;22607;49.550;11.940;2022-07-23T12:01:22;97030.06;;;25.42;61.68
36598;BME280;22607;49.550;11.940;2022-07-23T12:04:09;97028.09;;;25.27;58.39
36598;BME280;22607;49.550;11.940;2022-07-23T12:06:57;97030.50;;;25.24;58.75
36598;BME280;22607;49.550;11.940;2022-07-23T12:09:46;97037.53;;;25.35;57.89
36598;BME280;22607;49.550;11.940;2022-07-23T12:12:46;97029.38;;;25.09;61.50
36598;BME280;22607;49.550;11.940;2022-07-23T12:15:37;97022.09;;;24.99;59.55
36598;BME280;22607;49.550;11.940;2022-07-23T12:18:27;97013.59;;;24.75;67.61
36598;BME280;22607;49.550;11.940;2022-07-23T12:21:14;97018.63;;;25.09;62.49
36598;BME280;22607;49.550;11.940;2022-07-23T12:24:06;97009.69;;;25.62;61.96
36598;BME280;22607;49.550;11.940;2022-07-23T12:27:12;97020.44;;;25.62;58.37
36598;BME280;22607;49.550;11.940;2022-07-23T12:33:03;97023.66;;;25.64;53.72
36598;BME280;22607;49.550;11.940;2022-07-23T12:35:53;97014.56;;;25.97;55.84
36598;BME280;22607;49.550;11.940;2022-07-23T12:38:43;97004.59;;;26.59;50.42
36598;BME280;22607;49.550;11.940;2022-07-23T12:41:50;96988.88;;;27.08;48.37
36598;BME280;22607;49.550;11.940;2022-07-23T12:44:38;96992.75;;;26.55;50.82
36598;BME280;22607;49.550;11.940;2022-07-23T12:47:25;96994.50;;;27.12;49.04
36598;BME280;22607;49.550;11.940;2022-07-23T12:53:15;96986.16;;;27.64;45.55
36598;BME280;22607;49.550;11.940;2022-07-23T12:55:46;96986.69;;;27.66;44.81
36598;BME280;22607;49.550;11.940;2022-07-23T13:01:10;96981.19;;;27.82;45.44
36598;BME280;22607;49.550;11.940;2022-07-23T13:03:40;96968.78;;;27.81;44.43
36598;BME280;22607;49.550;11.940;2022-07-23T13:06:10;96968.44;;;27.93;44.65
36598;BME280;22607;49.550;11.940;2022-07-23T13:08:39;96971.97;;;27.88;43.26
36598;BME280;22607;49.550;11.940;2022-07-23T13:11:06;96971.91;;;27.53;43.77
36598;BME280;22607;49.550;11.940;2022-07-23T13:13:34;96969.06;;;27.79;43.71
36598;BME280;22607;49.550;11.940;2022-07-23T13:16:02;96957.31;;;27.99;43.50
36598;BME280;22607;49.550;11.940;2022-07-23T13:18:37;96962.28;;;28.16;42.42
36598;BME280;22607;49.550;11.940;2022-07-23T13:21:05;96961.09;;;27.98;42.59
36598;BME280;22607;49.550;11.940;2022-07-23T13:23:32;96958.72;;;28.21;41.65
36598;BME280;22607;49.550;11.940;2022-07-23T13:25:59;96968.66;;;27.96;42.21
36598;BME280;22607;49.550;11.940;2022-07-23T13:28:26;96966.81;;;28.26;41.44
36598;BME280;22607;49.550;11.940;2022-07-23T13:30:53;96960.13;;;28.48;41.53
36598;BME280;22607;49.550;11.940;2022-07-23T13:33:21;96958.28;;;28.68;41.36
36598;BME280;22607;49.550;11.940;2022-07-23T13:35:49;96961.66;;;28.54;40.53
36598;BME280;22607;49.550;11.940;2022-07-23T13:38:18;96963.81;;;28.58;40.50
36598;BME280;22607;49.550;11.940;2022-07-23T13:40:47;96972.72;;;28.58;39.92
36598;BME280;22607;49.550;11.940;2022-07-23T13:43:16;96958.97;;;28.25;41.18
36598;BME280;22607;49.550;11.940;2022-07-23T13:45:48;96962.69;;;28.59;40.77
36598;BME280;22607;49.550;11.940;2022-07-23T13:48:16;96961.03;;;28.38;41.01
36598;BME280;22607;49.550;11.940;2022-07-23T13:50:44;96962.44;;;28.30;42.50
36598;BME280;22607;49.550;11.940;2022-07-23T13:53:14;96963.81;;;28.28;41.53
36598;BME280;22607;49.550;11.940;2022-07-23T13:55:42;96960.75;;;28.40;41.36
36598;BME280;22607;49.550;11.940;2022-07-23T13:58:14;96961.97;;;28.23;41.77
36598;BME280;22607;49.550;11.940;2022-07-23T14:00:44;96963.25;;;28.61;41.97
36598;BME280;22607;49.550;11.940;2022-07-23T14:03:21;96958.19;;;28.54;41.49
36598;BME280;22607;49.550;11.940;2022-07-23T14:05:51;96959.19;;;28.82;40.14
36598;BME280;22607;49.550;11.940;2022-07-23T14:08:21;96956.06;;;28.75;40.66
36598;BME280;22607;49.550;11.940;2022-07-23T14:10:48;96954.28;;;28.90;40.27
36598;BME280;22607;49.550;11.940;2022-07-23T14:13:15;96956.78;;;28.81;39.43
36598;BME280;22607;49.550;11.940;2022-07-23T14:15:42;96956.34;;;28.98;39.91
36598;BME280;22607;49.550;11.940;2022-07-23T14:18:09;96960.53;;;29.09;39.25
36598;BME280;22607;49.550;11.940;2022-07-23T14:20:36;96957.28;;;29.51;38.15
36598;BME280;22607;49.550;11.940;2022-07-23T14:23:03;96953.00;;;29.26;39.29
36598;BME280;22607;49.550;11.940;2022-07-23T14:25:31;96942.13;;;29.31;38.57
36598;BME280;22607;49.550;11.940;2022-07-23T14:27:59;96951.91;;;29.46;39.56
36598;BME280;22607;49.550;11.940;2022-07-23T14:30:26;96963.13;;;29.58;38.27
36598;BME280;22607;49.550;11.940;2022-07-23T14:33:00;96952.25;;;29.20;39.91
36598;BME280;22607;49.550;11.940;2022-07-23T14:35:26;96948.19;;;29.42;37.79
36598;BME280;22607;49.550;11.940;2022-07-23T14:37:53;96945.03;;;29.15;38.88
36598;BME280;22607;49.550;11.940;2022-07-23T14:40:20;96940.47;;;29.54;38.83
36598;BME280;22607;49.550;11.940;2022-07-23T14:42:49;96941.25;;;29.55;38.98
36598;BME280;22607;49.550;11.940;2022-07-23T14:45:16;96944.31;;;29.29;38.65
36598;BME280;22607;49.550;11.940;2022-07-23T14:47:45;96939.72;;;28.86;40.58